Main page
METAR-TAF:

METAR-TAF

Airports :

Maharana Pratap Airport

Udaipur, India

latitude: 24-37-04N, longitude: 73-53-46E, elevation: 513 m

Current weather observation

The report was made 7 hours and 52 minutes ago, at 13:00 UTC
Wind 4 kt from the North/Northeast
Temperature 35°C
Humidity 17%
Pressure 1011 hPa
Visibility: 6000 m
Few clouds at a height of 3000 ft
Scattered clouds at a height of 3500 ft

METAR: VAUD 111300Z 02004KT 6000 FEW030 SCT035 35/06 Q1011 NOSIG

Time: 02:22 (20:52 UTC)

Forecast

The report was made 9 hours and 52 minutes ago, at 11:00 UTC
Forecast valid from 11 at 12 UTC to 11 at 21 UTC
Wind 3 kt from variable directions
Visibility: 3000 m
Few clouds at a height of 3500 ft
Scattered clouds at a height of 10000 ft
haze

TAF: VAUD 111100Z 1112/1121 VRB03KT 3000 HZ FEW035 SCT100

Weather observations and forecasts of more than 4000 airports (METAR and TAF reports).

The available stations are represented by yellow and red dots on the map.

Hover mouse over dot to see the name of the station.

Then click to see weather observations and forecasts.

To change the map : click on the green buttons with a black cross to zoom in, on the green button with a dash to zoom out, or on the green arrows for adjacent maps.


METAR-TAF: